createdAt,value
2018-07-27T00:01:35.798Z,71.78
2018-07-27T00:04:04.623Z,72.19
2018-07-27T00:06:33.446Z,71.88
2018-07-27T00:09:02.245Z,71.44
2018-07-27T00:11:31.033Z,71.51
2018-07-27T00:13:59.829Z,73.80
2018-07-27T00:16:28.678Z,72.98
2018-07-27T00:18:57.493Z,72.38
2018-07-27T00:21:26.322Z,72.15
2018-07-27T00:23:55.107Z,72.25
2018-07-27T00:26:23.901Z,72.21
2018-07-27T00:28:52.709Z,72.10
2018-07-27T00:31:21.518Z,71.79
2018-07-27T00:33:50.322Z,72.93
2018-07-27T00:36:19.126Z,72.71
2018-07-27T00:38:47.922Z,72.25
2018-07-27T00:41:16.737Z,72.16
2018-07-27T00:43:45.522Z,72.29
2018-07-27T00:46:14.493Z,72.37
2018-07-27T00:48:43.232Z,71.88
2018-07-27T00:51:12.009Z,72.03
2018-07-27T00:53:41.007Z,71.60
2018-07-27T00:56:09.946Z,72.56
2018-07-27T00:58:38.798Z,72.10
2018-07-27T01:01:07.767Z,72.58
2018-07-27T01:03:36.655Z,73.33
2018-07-27T01:06:05.582Z,72.32
2018-07-27T01:08:34.518Z,71.86
2018-07-27T01:11:03.421Z,72.85
2018-07-27T01:13:32.295Z,73.57
2018-07-27T01:16:01.208Z,72.48
2018-07-27T01:18:30.089Z,71.96
2018-07-27T01:20:59.029Z,71.83
2018-07-27T01:23:27.926Z,72.61
2018-07-27T01:25:56.777Z,73.92
2018-07-27T01:28:25.677Z,73.63
2018-07-27T01:30:54.622Z,72.47
2018-07-27T01:33:23.522Z,71.90
2018-07-27T01:35:52.421Z,72.89
2018-07-27T01:38:21.293Z,73.73
2018-07-27T01:40:50.403Z,73.23
2018-07-27T01:43:19.279Z,73.78
2018-07-27T01:45:48.218Z,72.68
2018-07-27T01:48:17.117Z,73.26
2018-07-27T01:50:46.009Z,72.26
2018-07-27T01:53:14.901Z,71.66
2018-07-27T01:55:43.805Z,71.31
2018-07-27T01:58:12.689Z,71.68
2018-07-27T02:00:41.618Z,71.29
2018-07-27T02:03:10.510Z,72.02
2018-07-27T02:05:39.396Z,72.88
2018-07-27T02:08:08.295Z,71.63
2018-07-27T02:10:37.245Z,72.90
2018-07-27T02:13:06.211Z,72.85
2018-07-27T02:15:35.025Z,73.88
2018-07-27T02:18:03.945Z,73.07
2018-07-27T02:20:32.906Z,72.89
2018-07-27T02:23:01.774Z,71.77
2018-07-27T02:25:30.677Z,74.16
2018-07-27T02:27:59.698Z,74.34
2018-07-27T02:30:28.854Z,74.18
2018-07-27T02:32:57.744Z,73.22
2018-07-27T02:35:26.657Z,72.71
2018-07-27T02:37:55.529Z,73.84
2018-07-27T02:40:24.441Z,74.08
2018-07-27T02:42:53.375Z,74.59
2018-07-27T02:45:22.243Z,73.13
2018-07-27T02:47:51.128Z,72.08
2018-07-27T02:50:20.888Z,73.03
2018-07-27T02:52:50.172Z,73.23
2018-07-27T02:55:19.021Z,73.41
2018-07-27T02:57:47.875Z,74.13
2018-07-27T03:00:16.810Z,74.26
2018-07-27T03:02:45.766Z,73.74
2018-07-27T03:05:14.608Z,73.94
2018-07-27T03:07:43.566Z,74.17
2018-07-27T03:10:12.481Z,74.52
2018-07-27T03:12:41.370Z,73.90
2018-07-27T03:15:10.222Z,72.78
2018-07-27T03:17:39.118Z,74.18
2018-07-27T03:20:08.072Z,74.27
2018-07-27T03:22:37.027Z,74.06
2018-07-27T03:25:06.201Z,72.99
2018-07-27T03:27:35.149Z,73.14
2018-07-27T03:30:04.226Z,73.23
2018-07-27T03:32:33.114Z,72.54
2018-07-27T03:35:02.021Z,71.72
2018-07-27T03:37:30.928Z,71.77
2018-07-27T03:39:59.801Z,71.85
2018-07-27T03:42:28.690Z,72.01
2018-07-27T03:44:57.597Z,71.98
2018-07-27T03:47:26.484Z,72.87
2018-07-27T03:49:55.400Z,73.14
2018-07-27T03:52:24.283Z,72.30
2018-07-27T03:54:53.271Z,71.88
2018-07-27T03:57:22.209Z,71.38
2018-07-27T03:59:51.051Z,71.74
2018-07-27T04:02:20.018Z,71.87
2018-07-27T04:04:48.916Z,71.89
2018-07-27T04:07:17.809Z,71.92
2018-07-27T04:09:46.749Z,72.13
2018-07-27T04:12:15.604Z,71.86
2018-07-27T04:14:44.542Z,72.04
2018-07-27T04:17:13.499Z,71.43
2018-07-27T04:19:42.401Z,70.61
2018-07-27T04:22:11.310Z,68.31
2018-07-27T04:24:40.263Z,67.37
2018-07-27T04:27:09.103Z,66.04
2018-07-27T04:29:37.944Z,65.24
2018-07-27T04:32:06.854Z,65.51
2018-07-27T04:34:35.643Z,64.39
2018-07-27T04:37:04.444Z,64.54
2018-07-27T04:39:33.264Z,63.04
2018-07-27T04:42:02.095Z,63.41
2018-07-27T04:44:30.854Z,62.56
2018-07-27T04:46:59.675Z,61.71
2018-07-27T04:49:28.601Z,61.37
2018-07-27T04:51:57.366Z,61.65
2018-07-27T04:54:26.242Z,61.23
2018-07-27T04:56:55.218Z,61.18
2018-07-27T04:59:24.032Z,61.42
2018-07-27T05:01:52.853Z,61.23
2018-07-27T05:04:21.668Z,61.20
2018-07-27T05:06:50.515Z,61.10
2018-07-27T05:09:19.574Z,61.10
2018-07-27T05:11:48.455Z,61.11
2018-07-27T05:14:17.364Z,60.44
2018-07-27T05:16:46.276Z,60.21
2018-07-27T05:19:15.143Z,60.25
2018-07-27T05:21:43.966Z,59.15
2018-07-27T05:24:12.762Z,60.01
2018-07-27T05:26:41.621Z,60.27
2018-07-27T05:29:10.446Z,59.69
2018-07-27T05:31:39.309Z,59.88
2018-07-27T05:34:08.071Z,59.80
2018-07-27T05:36:36.828Z,59.19
2018-07-27T05:39:08.941Z,59.28
2018-07-27T05:41:38.050Z,59.56
2018-07-27T05:44:07.065Z,58.87
2018-07-27T05:46:35.846Z,59.64
2018-07-27T05:49:04.717Z,59.54
2018-07-27T05:51:33.558Z,59.96
2018-07-27T05:54:02.379Z,59.11
2018-07-27T05:56:31.197Z,59.89
2018-07-27T05:58:59.977Z,59.05
2018-07-27T06:01:28.800Z,59.79
2018-07-27T06:03:57.618Z,59.86
2018-07-27T06:06:26.442Z,58.35
2018-07-27T06:08:55.294Z,59.18
2018-07-27T06:11:24.172Z,58.66
2018-07-27T06:13:53.048Z,58.62
2018-07-27T06:16:21.842Z,58.67
2018-07-27T06:18:50.637Z,58.78
2018-07-27T06:21:19.458Z,58.40
2018-07-27T06:23:48.288Z,58.61
2018-07-27T06:26:17.142Z,58.63
2018-07-27T06:28:45.990Z,58.22
2018-07-27T06:31:14.823Z,58.61
2018-07-27T06:33:43.683Z,58.49
2018-07-27T06:36:12.484Z,58.31
2018-07-27T06:38:41.306Z,58.55
2018-07-27T06:41:10.127Z,58.03
2018-07-27T06:43:38.915Z,58.19
2018-07-27T06:46:07.715Z,57.90
2018-07-27T06:48:36.534Z,58.29
2018-07-27T06:51:05.373Z,57.48
2018-07-27T06:53:34.221Z,57.83
2018-07-27T06:56:03.055Z,58.11
2018-07-27T06:58:31.879Z,57.75
2018-07-27T07:01:00.715Z,58.05
2018-07-27T07:03:29.721Z,57.60
2018-07-27T07:05:58.565Z,58.08
2018-07-27T07:08:27.355Z,57.32
2018-07-27T07:10:56.180Z,57.73
2018-07-27T07:13:24.982Z,58.00
2018-07-27T07:15:53.802Z,57.44
2018-07-27T07:18:22.780Z,57.47
2018-07-27T07:20:51.609Z,57.61
2018-07-27T07:23:20.422Z,57.21
2018-07-27T07:25:49.533Z,57.04
2018-07-27T07:28:18.096Z,56.92
2018-07-27T07:30:46.946Z,57.29
2018-07-27T07:33:16.060Z,57.02
2018-07-27T07:35:44.855Z,57.51
2018-07-27T07:38:13.689Z,57.46
2018-07-27T07:40:42.510Z,57.94
2018-07-27T07:43:11.308Z,58.06
2018-07-27T07:45:40.127Z,57.64
2018-07-27T07:48:09.114Z,57.59
2018-07-27T07:50:37.924Z,57.91
2018-07-27T07:53:06.794Z,57.83
2018-07-27T07:55:35.594Z,58.05
2018-07-27T07:58:04.395Z,57.98
2018-07-27T08:00:33.195Z,57.83
2018-07-27T08:03:02.045Z,58.11
2018-07-27T08:05:30.827Z,58.04
2018-07-27T08:07:59.627Z,58.31
2018-07-27T08:10:28.438Z,58.40
2018-07-27T08:12:57.203Z,58.59
2018-07-27T08:15:25.950Z,58.17
2018-07-27T08:17:54.689Z,58.42
2018-07-27T08:20:23.514Z,58.51
2018-07-27T08:22:52.289Z,58.21
2018-07-27T08:25:21.033Z,58.39
2018-07-27T08:27:59.467Z,58.49
2018-07-27T08:30:28.273Z,57.93
2018-07-27T08:32:57.085Z,57.89
2018-07-27T08:35:25.855Z,57.81
2018-07-27T08:37:54.604Z,58.34
2018-07-27T08:40:23.388Z,57.97
2018-07-27T08:42:52.156Z,57.84
2018-07-27T08:45:21.120Z,58.11
2018-07-27T08:47:49.842Z,57.90
2018-07-27T08:50:18.634Z,57.91
2018-07-27T08:52:47.382Z,58.10
2018-07-27T08:55:16.143Z,58.14
2018-07-27T08:57:44.925Z,57.75
2018-07-27T09:00:13.759Z,57.75
2018-07-27T09:02:42.528Z,57.34
2018-07-27T09:05:11.293Z,57.71
2018-07-27T09:07:40.084Z,57.68
2018-07-27T09:10:08.914Z,57.71
2018-07-27T09:12:37.707Z,57.08
2018-07-27T09:15:06.581Z,57.14
2018-07-27T09:17:35.409Z,56.59
2018-07-27T09:20:04.306Z,56.89
2018-07-27T09:22:33.081Z,57.15
2018-07-27T09:25:02.037Z,56.92
2018-07-27T09:27:30.744Z,56.85
2018-07-27T09:29:59.533Z,56.55
2018-07-27T09:32:27.890Z,57.12
2018-07-27T09:34:56.669Z,56.77
2018-07-27T09:37:25.514Z,56.74
2018-07-27T09:39:54.282Z,56.57
2018-07-27T09:42:23.048Z,56.74
2018-07-27T09:44:51.903Z,56.70
2018-07-27T09:47:20.673Z,56.79
2018-07-27T09:49:49.470Z,56.87
2018-07-27T09:52:18.286Z,57.07
2018-07-27T09:54:47.058Z,56.53
2018-07-27T09:57:15.848Z,56.60
2018-07-27T09:59:44.650Z,56.22
2018-07-27T10:02:13.426Z,56.93
2018-07-27T10:04:42.225Z,56.26
2018-07-27T10:07:11.018Z,56.49
2018-07-27T10:09:40.633Z,56.17
2018-07-27T10:12:09.404Z,55.90
2018-07-27T10:14:38.165Z,55.72
2018-07-27T10:17:06.956Z,55.79
2018-07-27T10:19:35.713Z,55.77
2018-07-27T10:22:04.513Z,56.14
2018-07-27T10:24:33.269Z,55.94
2018-07-27T10:27:02.102Z,55.41
2018-07-27T10:29:30.867Z,55.44
2018-07-27T10:31:59.662Z,55.06
2018-07-27T10:34:28.605Z,54.83
2018-07-27T10:36:58.053Z,55.49
2018-07-27T10:39:26.819Z,54.76
2018-07-27T10:41:55.594Z,55.40
2018-07-27T10:44:24.557Z,55.52
2018-07-27T10:46:53.336Z,54.80
2018-07-27T10:49:22.133Z,54.71
2018-07-27T10:51:50.880Z,54.75
2018-07-27T10:54:19.641Z,54.80
2018-07-27T10:56:48.465Z,54.32
2018-07-27T10:59:17.241Z,54.60
2018-07-27T11:01:46.001Z,54.59
2018-07-27T11:04:14.769Z,54.66
2018-07-27T11:06:43.533Z,54.32
2018-07-27T11:09:12.295Z,54.54
2018-07-27T11:11:41.784Z,54.21
2018-07-27T11:14:10.577Z,54.70
2018-07-27T11:16:39.386Z,54.62
2018-07-27T11:19:08.247Z,55.03
2018-07-27T11:21:37.117Z,55.27
2018-07-27T11:24:06.027Z,55.47
2018-07-27T11:26:34.859Z,55.39
2018-07-27T11:29:03.714Z,54.95
2018-07-27T11:31:32.592Z,55.12
2018-07-27T11:34:01.435Z,55.39
2018-07-27T11:36:30.278Z,55.39
2018-07-27T11:38:59.095Z,55.25
2018-07-27T11:41:27.930Z,55.06
2018-07-27T11:43:56.749Z,54.93
2018-07-27T11:46:25.895Z,54.73
2018-07-27T11:48:54.706Z,55.24
2018-07-27T11:51:23.564Z,55.20
2018-07-27T11:53:52.362Z,55.52
2018-07-27T11:56:21.196Z,54.98
2018-07-27T11:58:50.045Z,54.88
2018-07-27T12:01:18.993Z,55.26
2018-07-27T12:03:47.873Z,55.33
2018-07-27T12:06:16.713Z,55.23
2018-07-27T12:08:45.546Z,55.11
2018-07-27T12:11:14.376Z,55.49
2018-07-27T12:13:43.200Z,55.66
2018-07-27T12:16:12.030Z,55.73
2018-07-27T12:18:40.810Z,55.77
2018-07-27T12:21:09.781Z,55.79
2018-07-27T12:23:38.598Z,55.63
2018-07-27T12:26:07.419Z,56.22
2018-07-27T12:28:36.480Z,56.42
2018-07-27T12:31:05.322Z,55.76
2018-07-27T12:33:34.170Z,55.83
2018-07-27T12:36:03.075Z,56.17
2018-07-27T12:38:31.910Z,56.35
2018-07-27T12:41:01.401Z,55.93
2018-07-27T12:43:30.415Z,56.43
2018-07-27T12:45:59.237Z,55.88
2018-07-27T12:48:28.051Z,55.87
2018-07-27T12:50:57.021Z,56.04
2018-07-27T12:53:25.804Z,56.51
2018-07-27T12:55:54.622Z,56.24
2018-07-27T12:58:23.556Z,55.83
2018-07-27T13:00:52.378Z,56.02
2018-07-27T13:03:21.149Z,56.43
2018-07-27T13:05:49.941Z,56.21
2018-07-27T13:08:18.752Z,56.74
2018-07-27T13:10:47.632Z,56.19
2018-07-27T13:13:16.446Z,56.81
2018-07-27T13:15:45.240Z,56.50
2018-07-27T13:18:14.043Z,56.17
2018-07-27T13:20:53.234Z,56.59
2018-07-27T13:23:23.999Z,55.97
2018-07-27T13:28:34.080Z,56.42
2018-07-27T13:31:02.942Z,56.24
2018-07-27T13:33:32.144Z,55.56
2018-07-27T13:38:30.604Z,56.06
2018-07-27T13:40:59.602Z,55.33
2018-07-27T13:43:28.484Z,55.41
2018-07-27T13:45:57.621Z,54.88
2018-07-27T13:48:26.938Z,54.98
2018-07-27T13:50:55.734Z,55.05
2018-07-27T13:53:24.546Z,55.60
2018-07-27T13:55:53.330Z,55.62
2018-07-27T13:58:22.110Z,55.02
2018-07-27T14:00:50.897Z,55.66
2018-07-27T14:03:19.702Z,55.22
2018-07-27T14:05:48.509Z,55.15
2018-07-27T14:08:17.306Z,55.47
2018-07-27T14:10:46.256Z,55.37
2018-07-27T14:13:15.109Z,55.17
2018-07-27T14:15:43.927Z,55.42
2018-07-27T14:18:12.719Z,55.28
2018-07-27T14:20:41.509Z,55.43
2018-07-27T14:23:10.302Z,55.57
2018-07-27T14:25:39.119Z,55.60
2018-07-27T14:28:07.913Z,55.62
2018-07-27T14:30:36.755Z,55.69
2018-07-27T14:33:05.637Z,55.63
2018-07-27T14:35:34.446Z,55.97
2018-07-27T14:38:03.237Z,55.86
2018-07-27T14:40:32.094Z,55.83
2018-07-27T14:43:00.910Z,55.92
2018-07-27T14:45:29.720Z,56.12
2018-07-27T14:47:58.509Z,55.62
2018-07-27T14:50:27.289Z,55.52
2018-07-27T14:52:56.099Z,55.59
2018-07-27T14:55:24.905Z,56.28
2018-07-27T14:57:53.756Z,55.99
2018-07-27T15:00:22.579Z,55.73
2018-07-27T15:02:51.394Z,55.65
2018-07-27T15:05:20.244Z,55.67
2018-07-27T15:07:49.089Z,55.76
2018-07-27T15:10:17.927Z,56.11
2018-07-27T15:12:46.729Z,56.09
2018-07-27T15:15:15.562Z,55.68
2018-07-27T15:17:44.370Z,55.47
2018-07-27T15:20:13.303Z,55.38
2018-07-27T15:22:42.092Z,55.67
2018-07-27T15:25:11.130Z,55.29
2018-07-27T15:27:39.910Z,55.75
2018-07-27T15:30:08.721Z,56.00
2018-07-27T15:32:37.750Z,55.91
2018-07-27T15:35:06.707Z,55.63
2018-07-27T15:37:35.519Z,55.74
2018-07-27T15:40:04.424Z,55.13
2018-07-27T15:42:33.244Z,55.69
2018-07-27T15:45:02.050Z,55.18
2018-07-27T15:47:31.099Z,55.46
2018-07-27T15:49:59.894Z,55.72
2018-07-27T15:52:28.705Z,55.51
2018-07-27T15:54:57.509Z,55.50
2018-07-27T15:57:26.291Z,55.01
2018-07-27T15:59:55.100Z,55.29
2018-07-27T16:02:23.933Z,55.32
2018-07-27T16:04:52.735Z,55.41
2018-07-27T16:07:21.553Z,55.47
2018-07-27T16:09:50.372Z,55.05
2018-07-27T16:12:19.245Z,55.00
2018-07-27T16:14:48.155Z,55.18
2018-07-27T16:17:17.093Z,54.86
2018-07-27T16:19:45.895Z,55.17
2018-07-27T16:22:14.720Z,54.72
2018-07-27T16:24:43.672Z,55.34
2018-07-27T16:27:12.489Z,55.00
2018-07-27T16:29:41.328Z,54.91
2018-07-27T16:32:10.153Z,54.85
2018-07-27T16:34:39.025Z,54.60
2018-07-27T16:37:07.855Z,54.66
2018-07-27T16:39:36.703Z,54.93
2018-07-27T16:42:05.678Z,55.23
2018-07-27T16:44:34.477Z,54.79
2018-07-27T16:47:03.293Z,55.12
2018-07-27T16:49:32.077Z,54.93
2018-07-27T16:52:00.895Z,54.96
2018-07-27T16:54:29.688Z,54.90
2018-07-27T16:56:58.498Z,54.97
2018-07-27T16:59:27.298Z,55.00
2018-07-27T17:01:56.063Z,54.85
2018-07-27T17:04:24.848Z,54.95
2018-07-27T17:06:53.627Z,55.04
2018-07-27T17:09:22.468Z,55.55
2018-07-27T17:11:51.236Z,55.62
2018-07-27T17:14:20.031Z,55.54
2018-07-27T17:16:48.841Z,55.50
2018-07-27T17:19:17.637Z,55.22
2018-07-27T17:21:46.446Z,55.74
2018-07-27T17:24:15.225Z,55.78
2018-07-27T17:26:44.011Z,55.51
2018-07-27T17:29:12.839Z,55.89
2018-07-27T17:31:41.657Z,55.91
2018-07-27T17:34:10.438Z,55.87
2018-07-27T17:36:39.200Z,55.81
2018-07-27T17:39:10.198Z,55.48
2018-07-27T17:41:39.321Z,56.18
2018-07-27T17:44:08.722Z,55.67
2018-07-27T17:46:37.644Z,55.75
2018-07-27T17:49:06.673Z,56.20
2018-07-27T17:51:35.476Z,55.83
2018-07-27T17:54:04.374Z,55.99
2018-07-27T17:56:33.149Z,55.83
2018-07-27T17:59:01.955Z,55.59
2018-07-27T18:01:30.766Z,55.65
2018-07-27T18:03:59.540Z,56.05
2018-07-27T18:06:28.327Z,55.70
2018-07-27T18:08:57.128Z,56.04
2018-07-27T18:11:25.908Z,55.82
2018-07-27T18:13:54.698Z,55.67
2018-07-27T18:16:23.543Z,55.41
2018-07-27T18:18:52.393Z,55.44
2018-07-27T18:21:21.222Z,55.86
2018-07-27T18:23:50.009Z,55.51
2018-07-27T18:26:18.959Z,55.99
2018-07-27T18:28:47.791Z,55.61
2018-07-27T18:31:16.662Z,55.15
2018-07-27T18:33:45.453Z,55.64
2018-07-27T18:36:14.275Z,55.55
2018-07-27T18:38:43.072Z,55.69
2018-07-27T18:41:11.894Z,55.60
2018-07-27T18:43:40.693Z,55.84
2018-07-27T18:46:09.877Z,55.94
2018-07-27T18:48:38.788Z,56.02
2018-07-27T18:51:07.641Z,55.69
2018-07-27T18:53:36.459Z,56.00
2018-07-27T18:56:05.263Z,55.72
2018-07-27T18:58:34.037Z,55.60
2018-07-27T19:01:03.011Z,55.67
2018-07-27T19:03:31.801Z,55.59
2018-07-27T19:06:00.625Z,55.75
2018-07-27T19:08:29.689Z,55.38
2018-07-27T19:10:58.479Z,55.91
2018-07-27T19:13:27.410Z,55.06
2018-07-27T19:15:56.360Z,54.99
2018-07-27T19:18:25.255Z,54.77
2018-07-27T19:20:54.247Z,54.24
2018-07-27T19:23:23.155Z,52.77
2018-07-27T19:25:51.924Z,53.62
2018-07-27T19:28:20.701Z,52.40
2018-07-27T19:30:50.503Z,52.99
2018-07-27T19:33:19.288Z,52.55
2018-07-27T19:35:48.046Z,52.98
2018-07-27T19:38:16.843Z,52.81
2018-07-27T19:40:45.659Z,52.79
2018-07-27T19:43:14.466Z,52.18
2018-07-27T19:45:43.245Z,52.44
2018-07-27T19:48:12.027Z,51.90
2018-07-27T19:50:40.843Z,51.93
2018-07-27T19:53:09.654Z,50.94
2018-07-27T19:55:38.457Z,51.48
2018-07-27T19:58:07.277Z,51.93
2018-07-27T20:00:36.061Z,51.94
2018-07-27T20:03:04.910Z,51.91
2018-07-27T20:05:33.716Z,51.87
2018-07-27T20:08:02.484Z,51.71
2018-07-27T20:10:31.331Z,51.25
2018-07-27T20:13:00.169Z,50.66
2018-07-27T20:15:29.027Z,50.78
2018-07-27T20:17:57.842Z,51.28
2018-07-27T20:20:26.650Z,51.33
2018-07-27T20:22:55.438Z,51.02
2018-07-27T20:25:24.233Z,51.54
2018-07-27T20:27:53.060Z,51.93
2018-07-27T20:30:21.874Z,51.66
2018-07-27T20:32:50.657Z,52.25
2018-07-27T20:35:19.469Z,52.36
2018-07-27T20:37:48.266Z,52.23
2018-07-27T20:40:17.114Z,52.84
2018-07-27T20:42:45.928Z,53.22
2018-07-27T20:45:14.757Z,52.71
2018-07-27T20:47:43.564Z,53.16
2018-07-27T20:50:12.374Z,53.18
2018-07-27T20:52:41.189Z,53.01
2018-07-27T20:55:09.980Z,53.32
2018-07-27T20:57:38.756Z,53.15
2018-07-27T21:00:11.787Z,52.92
2018-07-27T21:02:41.650Z,53.21
2018-07-27T21:05:10.949Z,54.09
2018-07-27T21:07:40.155Z,53.68
2018-07-27T21:10:09.065Z,53.62
2018-07-27T21:12:37.915Z,54.01
2018-07-27T21:15:06.806Z,54.70
2018-07-27T21:17:35.628Z,54.25
2018-07-27T21:20:05.066Z,55.01
2018-07-27T21:22:33.828Z,54.58
2018-07-27T21:25:02.614Z,54.42
2018-07-27T21:27:31.535Z,54.52
2018-07-27T21:30:00.343Z,54.99
2018-07-27T21:32:29.122Z,54.82
2018-07-27T21:34:57.894Z,54.37
2018-07-27T21:37:26.710Z,56.18
2018-07-27T21:39:55.510Z,55.37
2018-07-27T21:42:24.316Z,55.35
2018-07-27T21:44:53.071Z,55.28
2018-07-27T21:47:21.859Z,56.35
2018-07-27T21:49:50.665Z,55.67
2018-07-27T21:52:19.489Z,55.72
2018-07-27T21:54:48.247Z,56.08
2018-07-27T21:57:17.061Z,55.92
2018-07-27T21:59:45.917Z,55.99
2018-07-27T22:02:14.696Z,56.54
2018-07-27T22:04:43.457Z,56.25
2018-07-27T22:07:12.265Z,56.24
2018-07-27T22:09:41.047Z,56.43
2018-07-27T22:12:09.817Z,56.86
2018-07-27T22:14:38.630Z,56.45
2018-07-27T22:17:07.424Z,56.73
2018-07-27T22:19:36.201Z,56.49
2018-07-27T22:22:05.000Z,56.56
2018-07-27T22:24:33.749Z,56.99
2018-07-27T22:27:02.548Z,56.78
2018-07-27T22:29:31.340Z,57.12
2018-07-27T22:32:00.118Z,57.50
2018-07-27T22:34:28.902Z,57.76
2018-07-27T22:36:57.665Z,57.03
2018-07-27T22:39:26.442Z,56.44
2018-07-27T22:41:55.209Z,56.77
2018-07-27T22:44:23.993Z,56.77
2018-07-27T22:46:52.780Z,56.59
2018-07-27T22:49:21.541Z,57.08
2018-07-27T22:51:50.378Z,57.42
2018-07-27T22:54:19.215Z,57.15
2018-07-27T22:56:48.044Z,57.31
2018-07-27T22:59:16.893Z,57.15
2018-07-27T23:01:45.728Z,57.06
2018-07-27T23:04:14.510Z,58.10
2018-07-27T23:06:43.323Z,58.19
2018-07-27T23:09:12.419Z,57.98
2018-07-27T23:11:41.185Z,58.70
2018-07-27T23:14:09.994Z,59.12
2018-07-27T23:16:38.790Z,59.17
2018-07-27T23:19:07.570Z,58.49
2018-07-27T23:21:36.347Z,60.19
2018-07-27T23:24:05.199Z,59.83
2018-07-27T23:26:33.990Z,59.23
2018-07-27T23:29:02.850Z,59.51
2018-07-27T23:31:31.630Z,59.13
2018-07-27T23:34:00.413Z,59.98
2018-07-27T23:36:29.276Z,59.74
2018-07-27T23:38:58.074Z,59.04
2018-07-27T23:41:26.850Z,58.60
2018-07-27T23:43:55.670Z,58.90
2018-07-27T23:46:24.488Z,58.31
2018-07-27T23:48:53.290Z,58.64
2018-07-27T23:51:22.100Z,59.60
2018-07-27T23:53:50.889Z,58.67
2018-07-27T23:56:19.697Z,58.56
2018-07-27T23:58:48.499Z,58.53
